createdAt,value
2018-02-05T00:00:23.084Z,-1.00
2018-02-05T00:02:50.951Z,-1.00
2018-02-05T00:05:18.793Z,-1.00
2018-02-05T00:07:46.559Z,-0.90
2018-02-05T00:10:14.456Z,-0.90
2018-02-05T00:12:42.400Z,-0.90
2018-02-05T00:15:10.406Z,-0.80
2018-02-05T00:17:38.390Z,-0.90
2018-02-05T00:20:07.120Z,-0.80
2018-02-05T00:22:35.196Z,-0.80
2018-02-05T00:25:03.074Z,-0.90
2018-02-05T00:27:30.983Z,-0.90
2018-02-05T00:29:59.517Z,-1.00
2018-02-05T00:32:27.474Z,-1.00
2018-02-05T00:34:55.342Z,-0.90
2018-02-05T00:37:23.106Z,-0.90
2018-02-05T00:39:50.869Z,-0.90
2018-02-05T00:42:18.756Z,-0.90
2018-02-05T00:44:46.568Z,-0.90
2018-02-05T00:47:14.484Z,-0.90
2018-02-05T00:49:42.228Z,-0.90
2018-02-05T00:52:10.402Z,-0.80
2018-02-05T00:54:38.290Z,-0.80
2018-02-05T00:57:06.271Z,-0.80
2018-02-05T00:59:34.051Z,-0.80
2018-02-05T01:02:02.075Z,-0.90
2018-02-05T01:04:30.063Z,-0.90
2018-02-05T01:06:58.251Z,-1.00
2018-02-05T01:09:26.208Z,-1.00
2018-02-05T01:11:54.085Z,-1.00
2018-02-05T01:14:22.028Z,-1.00
2018-02-05T01:16:49.914Z,-1.00
2018-02-05T01:19:18.399Z,-1.00
2018-02-05T01:21:46.351Z,-1.00
2018-02-05T01:24:14.322Z,-1.00
2018-02-05T01:26:42.061Z,-1.00
2018-02-05T01:29:10.131Z,-1.10
2018-02-05T01:31:38.133Z,-1.00
2018-02-05T01:34:05.877Z,-1.00
2018-02-05T01:36:33.665Z,-1.00
2018-02-05T01:39:01.631Z,-1.00
2018-02-05T01:41:29.804Z,-1.00
2018-02-05T01:43:57.950Z,-1.00
2018-02-05T01:46:26.123Z,-1.00
2018-02-05T01:48:53.955Z,-1.00
2018-02-05T01:51:22.794Z,-0.90
2018-02-05T01:53:50.688Z,-0.90
2018-02-05T01:56:19.250Z,-1.00
2018-02-05T01:58:47.094Z,-1.00
2018-02-05T02:01:15.787Z,-0.90
2018-02-05T02:03:43.666Z,-0.90
2018-02-05T02:06:11.512Z,-1.00
2018-02-05T02:08:39.413Z,-0.90
2018-02-05T02:11:07.444Z,-0.90
2018-02-05T02:13:35.247Z,-1.00
2018-02-05T02:16:03.094Z,-1.00
2018-02-05T02:18:30.945Z,-1.00
2018-02-05T02:20:58.982Z,-1.10
2018-02-05T02:23:26.780Z,-1.10
2018-02-05T02:25:54.595Z,-1.20
2018-02-05T02:28:23.238Z,-1.40
2018-02-05T02:30:50.991Z,-1.40
2018-02-05T02:33:18.874Z,-1.50
2018-02-05T02:35:46.727Z,-1.60
2018-02-05T02:38:14.466Z,-1.60
2018-02-05T02:40:42.362Z,-1.60
2018-02-05T02:43:10.112Z,-1.60
2018-02-05T02:45:37.855Z,-1.80
2018-02-05T02:48:05.620Z,-2.00
2018-02-05T02:50:33.342Z,-2.00
2018-02-05T02:53:01.177Z,-1.90
2018-02-05T02:55:29.045Z,-2.00
2018-02-05T02:57:56.908Z,-2.00
2018-02-05T03:00:24.774Z,-2.00
2018-02-05T03:02:52.639Z,-2.00
2018-02-05T03:05:20.434Z,-2.10
2018-02-05T03:07:48.286Z,-2.10
2018-02-05T03:10:16.158Z,-2.10
2018-02-05T03:12:44.019Z,-2.20
2018-02-05T03:15:11.979Z,-2.20
2018-02-05T03:17:40.252Z,-2.10
2018-02-05T03:20:08.112Z,-2.20
2018-02-05T03:22:36.057Z,-2.40
2018-02-05T03:25:04.069Z,-2.50
2018-02-05T03:27:31.830Z,-2.80
2018-02-05T03:29:59.844Z,-2.70
2018-02-05T03:32:28.350Z,-2.40
2018-02-05T03:34:56.163Z,-2.50
2018-02-05T03:37:24.841Z,-2.60
2018-02-05T03:39:52.597Z,-2.60
2018-02-05T03:42:20.464Z,-2.60
2018-02-05T03:44:48.529Z,-2.70
2018-02-05T03:47:16.330Z,-2.80
2018-02-05T03:49:45.193Z,-2.70
2018-02-05T03:52:13.114Z,-2.70
2018-02-05T03:54:41.677Z,-2.70
2018-02-05T03:57:10.683Z,-2.80
2018-02-05T03:59:38.501Z,-2.80
2018-02-05T04:02:06.259Z,-2.90
2018-02-05T04:04:34.069Z,-2.80
2018-02-05T04:07:08.384Z,-2.60
2018-02-05T04:09:36.316Z,-2.60
2018-02-05T04:12:04.182Z,-2.70
2018-02-05T04:14:32.190Z,-2.90
2018-02-05T04:17:00.695Z,-3.00
2018-02-05T04:19:28.594Z,-3.10
2018-02-05T04:21:56.777Z,-3.20
2018-02-05T04:24:24.639Z,-3.30
2018-02-05T04:26:52.715Z,-3.10
2018-02-05T04:29:21.292Z,-3.10
2018-02-05T04:31:49.239Z,-3.20
2018-02-05T04:34:17.113Z,-3.20
2018-02-05T04:36:44.995Z,-3.10
2018-02-05T04:39:12.855Z,-3.10
2018-02-05T04:41:40.620Z,-3.00
2018-02-05T04:44:08.471Z,-2.90
2018-02-05T04:46:36.305Z,-2.90
2018-02-05T04:49:04.323Z,-3.00
2018-02-05T04:51:32.199Z,-3.20
2018-02-05T04:54:00.155Z,-3.20
2018-02-05T04:56:28.165Z,-3.20
2018-02-05T04:58:55.981Z,-3.40
2018-02-05T05:01:23.845Z,-3.60
2018-02-05T05:03:51.618Z,-3.60
2018-02-05T05:06:19.467Z,-3.60
2018-02-05T05:08:47.289Z,-3.20
2018-02-05T05:11:16.014Z,-2.90
2018-02-05T05:13:43.889Z,-2.90
2018-02-05T05:16:12.064Z,-2.90
2018-02-05T05:18:40.116Z,-3.00
2018-02-05T05:21:08.305Z,-3.00
2018-02-05T05:23:36.203Z,-2.80
2018-02-05T05:26:04.159Z,-2.90
2018-02-05T05:28:31.922Z,-3.10
2018-02-05T05:31:00.406Z,-3.00
2018-02-05T05:33:28.214Z,-2.80
2018-02-05T05:35:56.099Z,-2.60
2018-02-05T05:38:23.862Z,-2.50
2018-02-05T05:40:51.748Z,-2.40
2018-02-05T05:43:19.507Z,-2.40
2018-02-05T05:45:47.377Z,-2.40
2018-02-05T05:48:15.353Z,-2.40
2018-02-05T05:50:43.236Z,-2.40
2018-02-05T05:53:10.992Z,-2.60
2018-02-05T05:55:38.777Z,-2.80
2018-02-05T05:58:06.546Z,-2.90
2018-02-05T06:00:35.099Z,-3.10
2018-02-05T06:03:03.076Z,-3.20
2018-02-05T06:05:31.042Z,-3.30
2018-02-05T06:07:58.946Z,-3.30
2018-02-05T06:10:27.698Z,-3.10
2018-02-05T06:12:55.570Z,-3.10
2018-02-05T06:15:23.518Z,-3.30
2018-02-05T06:17:51.378Z,-3.40
2018-02-05T06:20:19.257Z,-3.30
2018-02-05T06:22:47.051Z,-3.50
2018-02-05T06:25:15.189Z,-3.70
2018-02-05T06:27:42.940Z,-3.50
2018-02-05T06:30:11.056Z,-3.30
2018-02-05T06:32:39.498Z,-3.10
2018-02-05T06:35:07.282Z,-3.20
2018-02-05T06:37:35.345Z,-3.20
2018-02-05T06:40:04.020Z,-3.70
2018-02-05T06:42:32.089Z,-3.70
2018-02-05T06:44:59.920Z,-3.80
2018-02-05T06:47:28.762Z,-3.90
2018-02-05T06:49:57.349Z,-3.90
2018-02-05T06:52:46.017Z,-4.00
2018-02-05T06:55:39.583Z,-3.60
2018-02-05T06:58:07.434Z,-3.30
2018-02-05T07:00:35.201Z,-3.00
2018-02-05T07:03:03.166Z,-2.80
2018-02-05T07:05:31.150Z,-2.70
2018-02-05T07:07:59.124Z,-2.70
2018-02-05T07:10:27.053Z,-2.90
2018-02-05T07:12:54.825Z,-3.00
2018-02-05T07:15:22.739Z,-3.00
2018-02-05T07:17:50.574Z,-2.90
2018-02-05T07:20:19.163Z,-3.00
2018-02-05T07:22:46.998Z,-3.10
2018-02-05T07:25:14.884Z,-3.00
2018-02-05T07:27:43.617Z,-3.00
2018-02-05T07:30:12.253Z,-2.70
2018-02-05T07:32:40.105Z,-2.70
2018-02-05T07:35:08.004Z,-2.50
2018-02-05T07:37:35.968Z,-2.40
2018-02-05T07:40:03.830Z,-2.30
2018-02-05T07:42:44.477Z,-2.10
2018-02-05T07:45:14.804Z,-2.10
2018-02-05T07:47:51.997Z,-1.90
2018-02-05T07:50:22.129Z,-1.80
2018-02-05T07:52:59.643Z,-1.70
2018-02-05T07:55:44.567Z,-1.60
2018-02-05T07:58:28.454Z,-1.60
2018-02-05T08:01:03.485Z,-1.50
2018-02-05T08:03:40.914Z,-1.50
2018-02-05T08:06:14.983Z,-1.50
2018-02-05T08:08:49.107Z,-1.30
2018-02-05T08:11:26.082Z,-1.40
2018-02-05T08:13:54.814Z,-1.10
2018-02-05T08:16:22.589Z,-1.10
2018-02-05T08:18:50.457Z,-0.90
2018-02-05T08:21:18.443Z,-0.80
2018-02-05T08:23:47.002Z,-0.50
2018-02-05T08:26:14.846Z,-0.50
2018-02-05T08:28:42.644Z,-0.50
2018-02-05T08:31:10.596Z,-0.40
2018-02-05T08:33:38.459Z,-0.30
2018-02-05T08:36:06.254Z,-0.20
2018-02-05T08:38:34.268Z,-0.10
2018-02-05T08:41:02.265Z,-0.20
2018-02-05T08:43:30.949Z,0.20
2018-02-05T08:45:58.975Z,0.20
2018-02-05T08:48:27.629Z,0.70
2018-02-05T08:50:55.574Z,0.70
2018-02-05T08:53:23.545Z,0.70
2018-02-05T08:55:51.409Z,0.80
2018-02-05T08:58:19.378Z,0.90
2018-02-05T09:00:47.245Z,0.80
2018-02-05T09:03:15.105Z,0.90
2018-02-05T09:05:43.086Z,1.00
2018-02-05T09:08:11.063Z,1.00
2018-02-05T09:10:38.951Z,1.10
2018-02-05T09:13:06.914Z,1.00
2018-02-05T09:15:34.858Z,0.90
2018-02-05T09:18:02.740Z,0.60
2018-02-05T09:20:30.719Z,0.50
2018-02-05T09:22:59.386Z,0.50
2018-02-05T09:25:27.135Z,0.40
2018-02-05T09:27:54.931Z,0.40
2018-02-05T09:30:22.786Z,0.40
2018-02-05T09:32:50.648Z,0.50
2018-02-05T09:35:18.420Z,0.60
2018-02-05T09:37:46.285Z,0.40
2018-02-05T09:40:14.152Z,0.60
2018-02-05T09:42:42.026Z,1.00
2018-02-05T09:45:09.844Z,1.20
2018-02-05T09:47:37.752Z,1.40
2018-02-05T09:50:05.595Z,1.50
2018-02-05T09:52:33.465Z,1.70
2018-02-05T09:55:01.358Z,1.60
2018-02-05T09:57:29.218Z,1.80
2018-02-05T09:59:56.989Z,1.90
2018-02-05T10:02:24.850Z,2.20
2018-02-05T10:04:52.796Z,2.10
2018-02-05T10:07:21.481Z,1.90
2018-02-05T10:09:49.779Z,1.80
2018-02-05T10:12:17.646Z,2.00
2018-02-05T10:14:45.593Z,2.00
2018-02-05T10:17:13.473Z,2.00
2018-02-05T10:19:42.257Z,1.80
2018-02-05T10:22:10.043Z,1.80
2018-02-05T10:24:37.988Z,2.00
2018-02-05T10:27:05.979Z,2.30
2018-02-05T10:29:33.917Z,2.10
2018-02-05T10:32:02.317Z,2.50
2018-02-05T10:34:30.117Z,2.50
2018-02-05T10:36:58.835Z,2.40
2018-02-05T10:39:26.630Z,2.40
2018-02-05T10:41:54.685Z,2.10
2018-02-05T10:44:22.470Z,2.20
2018-02-05T10:46:50.386Z,2.30
2018-02-05T10:49:18.384Z,2.30
2018-02-05T10:51:46.250Z,2.20
2018-02-05T10:54:15.161Z,2.20
2018-02-05T10:56:43.012Z,2.30
2018-02-05T10:59:11.082Z,2.20
2018-02-05T11:01:39.058Z,2.30
2018-02-05T11:04:06.949Z,2.10
2018-02-05T11:06:35.623Z,2.00
2018-02-05T11:09:03.542Z,2.00
2018-02-05T11:11:31.455Z,2.10
2018-02-05T11:13:59.508Z,2.40
2018-02-05T11:16:27.382Z,2.40
2018-02-05T11:18:55.141Z,2.40
2018-02-05T11:21:23.104Z,2.60
2018-02-05T11:23:51.817Z,2.80
2018-02-05T11:26:19.579Z,2.70
2018-02-05T11:28:47.339Z,2.70
2018-02-05T11:31:15.222Z,2.80
2018-02-05T11:33:43.154Z,3.30
2018-02-05T11:36:10.935Z,3.40
2018-02-05T11:38:38.784Z,3.60
2018-02-05T11:41:06.674Z,3.80
2018-02-05T11:43:34.641Z,4.10
2018-02-05T11:46:02.503Z,3.80
2018-02-05T11:48:30.455Z,3.50
2018-02-05T11:50:58.235Z,3.40
2018-02-05T11:53:26.068Z,3.70
2018-02-05T11:55:53.951Z,3.60
2018-02-05T11:58:21.763Z,3.60
2018-02-05T12:00:50.507Z,3.90
2018-02-05T12:03:18.487Z,3.90
2018-02-05T12:05:46.230Z,3.80
2018-02-05T12:08:14.014Z,3.70
2018-02-05T12:10:41.867Z,3.60
2018-02-05T12:13:09.655Z,3.40
2018-02-05T12:15:37.494Z,3.50
2018-02-05T12:18:05.996Z,3.50
2018-02-05T12:20:33.948Z,3.10
2018-02-05T12:23:02.018Z,3.10
2018-02-05T12:25:29.885Z,3.10
2018-02-05T12:27:57.854Z,3.10
2018-02-05T12:30:25.623Z,3.10
2018-02-05T12:32:54.020Z,2.80
2018-02-05T12:35:21.877Z,2.90
2018-02-05T12:37:49.746Z,2.90
2018-02-05T12:40:17.613Z,2.90
2018-02-05T12:42:45.521Z,2.80
2018-02-05T12:45:14.168Z,2.80
2018-02-05T12:47:42.045Z,2.80
2018-02-05T12:50:09.915Z,2.90
2018-02-05T12:52:37.848Z,2.90
2018-02-05T12:55:05.747Z,2.90
2018-02-05T12:57:36.242Z,3.10
2018-02-05T13:00:21.954Z,3.10
2018-02-05T13:03:05.664Z,3.10
2018-02-05T13:05:33.637Z,3.10
2018-02-05T13:08:02.125Z,3.20
2018-02-05T13:10:29.969Z,3.30
2018-02-05T13:12:57.744Z,3.40
2018-02-05T13:15:25.628Z,3.20
2018-02-05T13:17:53.386Z,3.30
2018-02-05T13:20:21.344Z,3.30
2018-02-05T13:22:49.227Z,3.40
2018-02-05T13:25:17.064Z,3.50
2018-02-05T13:27:44.832Z,3.60
2018-02-05T13:30:12.655Z,3.60
2018-02-05T13:32:41.214Z,3.90
2018-02-05T13:35:09.082Z,3.90
2018-02-05T13:37:36.929Z,4.00
2018-02-05T13:40:04.808Z,4.00
2018-02-05T13:42:32.777Z,4.30
2018-02-05T13:45:00.646Z,5.00
2018-02-05T13:47:28.513Z,5.00
2018-02-05T13:49:56.462Z,5.10
2018-02-05T13:52:24.348Z,5.00
2018-02-05T13:54:57.698Z,4.80
2018-02-05T13:57:25.511Z,4.70
2018-02-05T13:59:53.378Z,4.80
2018-02-05T14:02:21.199Z,4.70
2018-02-05T14:04:48.981Z,5.30
2018-02-05T14:07:17.172Z,5.40
2018-02-05T14:09:45.735Z,4.70
2018-02-05T14:12:13.602Z,4.60
2018-02-05T14:14:41.394Z,5.00
2018-02-05T14:17:09.266Z,4.80
2018-02-05T14:19:37.211Z,4.60
2018-02-05T14:22:04.986Z,4.70
2018-02-05T14:24:32.955Z,4.70
2018-02-05T14:27:01.032Z,5.00
2018-02-05T14:29:29.627Z,5.30
2018-02-05T14:31:57.474Z,5.20
2018-02-05T14:34:25.338Z,5.30
2018-02-05T14:36:54.224Z,5.10
2018-02-05T14:39:22.026Z,5.20
2018-02-05T14:41:51.374Z,5.30
2018-02-05T14:44:19.366Z,5.30
2018-02-05T14:46:47.318Z,5.30
2018-02-05T14:49:15.213Z,5.40
2018-02-05T14:51:43.074Z,5.40
2018-02-05T14:54:10.842Z,5.50
2018-02-05T14:56:38.707Z,5.60
2018-02-05T14:59:08.105Z,5.20
2018-02-05T15:01:35.974Z,5.20
2018-02-05T15:04:03.919Z,4.90
2018-02-05T15:06:31.707Z,4.80
2018-02-05T15:09:00.170Z,4.80
2018-02-05T15:11:28.042Z,5.00
2018-02-05T15:13:55.915Z,5.00
2018-02-05T15:16:23.692Z,5.00
2018-02-05T15:18:51.553Z,5.00
2018-02-05T15:21:19.398Z,4.80
2018-02-05T15:23:47.379Z,4.40
2018-02-05T15:26:15.242Z,4.40
2018-02-05T15:28:43.096Z,4.10
2018-02-05T15:31:10.981Z,3.80
2018-02-05T15:33:38.929Z,3.70
2018-02-05T15:36:06.795Z,3.50
2018-02-05T15:38:34.550Z,3.30
2018-02-05T15:41:04.266Z,3.00
2018-02-05T15:43:32.154Z,3.00
2018-02-05T15:46:00.102Z,2.80
2018-02-05T15:48:27.938Z,2.60
2018-02-05T15:50:55.755Z,2.40
2018-02-05T15:53:23.517Z,2.40
2018-02-05T15:55:51.403Z,2.30
2018-02-05T15:58:19.263Z,2.30
2018-02-05T16:00:47.049Z,2.20
2018-02-05T16:03:15.560Z,2.00
2018-02-05T16:05:43.469Z,2.00
2018-02-05T16:08:11.249Z,2.00
2018-02-05T16:10:39.709Z,1.90
2018-02-05T16:13:07.559Z,1.80
2018-02-05T16:15:35.419Z,1.60
2018-02-05T16:18:03.389Z,1.50
2018-02-05T16:20:31.161Z,1.30
2018-02-05T16:22:59.125Z,1.10
2018-02-05T16:25:26.991Z,0.90
2018-02-05T16:27:54.766Z,0.80
2018-02-05T16:30:22.753Z,0.70
2018-02-05T16:32:52.125Z,0.50
2018-02-05T16:35:19.907Z,0.50
2018-02-05T16:37:47.765Z,0.50
2018-02-05T16:40:15.729Z,0.60
2018-02-05T16:42:43.572Z,0.60
2018-02-05T16:45:11.381Z,0.50
2018-02-05T16:47:39.352Z,0.50
2018-02-05T16:50:07.233Z,0.50
2018-02-05T16:52:35.912Z,0.40
2018-02-05T16:55:03.870Z,0.40
2018-02-05T16:57:31.689Z,0.20
2018-02-05T17:00:00.703Z,0.20
2018-02-05T17:02:28.670Z,0.50
2018-02-05T17:04:56.748Z,0.50
2018-02-05T17:07:25.001Z,0.40
2018-02-05T17:09:53.724Z,0.20
2018-02-05T17:12:21.602Z,0.20
2018-02-05T17:14:49.432Z,0.30
2018-02-05T17:17:17.421Z,0.40
2018-02-05T17:19:45.162Z,0.40
2018-02-05T17:22:12.960Z,0.60
2018-02-05T17:24:41.318Z,0.50
2018-02-05T17:27:09.420Z,0.40
2018-02-05T17:29:38.072Z,0.40
2018-02-05T17:32:06.038Z,0.40
2018-02-05T17:34:34.255Z,0.40
2018-02-05T17:37:02.967Z,0.50
2018-02-05T17:39:31.811Z,0.50
2018-02-05T17:41:59.579Z,0.50
2018-02-05T17:44:31.314Z,0.50
2018-02-05T17:46:59.200Z,0.40
2018-02-05T17:49:27.862Z,0.30
2018-02-05T17:51:55.854Z,0.10
2018-02-05T17:54:23.815Z,0.00
2018-02-05T17:56:51.696Z,0.00
2018-02-05T17:59:19.620Z,0.00
2018-02-05T18:01:48.318Z,0.00
2018-02-05T18:04:16.218Z,0.00
2018-02-05T18:06:44.131Z,0.10
2018-02-05T18:09:12.588Z,0.10
2018-02-05T18:11:41.243Z,-0.10
2018-02-05T18:14:09.110Z,-0.20
2018-02-05T18:16:36.980Z,-0.20
2018-02-05T18:19:04.917Z,-0.50
2018-02-05T18:21:32.797Z,-0.60
2018-02-05T18:24:00.797Z,-0.70
2018-02-05T18:26:28.722Z,-0.80
2018-02-05T18:28:56.595Z,-0.80
2018-02-05T18:31:24.582Z,-1.10
2018-02-05T18:33:54.677Z,-1.20
2018-02-05T18:36:22.746Z,-1.20
2018-02-05T18:38:50.627Z,-1.20
2018-02-05T18:41:18.800Z,-1.30
2018-02-05T18:43:46.686Z,-1.30
2018-02-05T18:46:15.283Z,-1.40
2018-02-05T18:48:44.126Z,-1.50
2018-02-05T18:51:12.197Z,-1.50
2018-02-05T18:53:40.474Z,-1.60
2018-02-05T18:56:08.377Z,-1.80
2018-02-05T18:58:36.236Z,-1.80
2018-02-05T19:01:04.380Z,-1.90
2018-02-05T19:03:32.158Z,-1.70
2018-02-05T19:06:00.053Z,-1.80
2018-02-05T19:08:28.638Z,-2.00
2018-02-05T19:10:57.384Z,-1.90
2018-02-05T19:13:25.367Z,-1.90
2018-02-05T19:15:53.335Z,-1.80
2018-02-05T19:18:21.323Z,-1.80
2018-02-05T19:20:50.036Z,-2.00
2018-02-05T19:23:19.968Z,-2.20
2018-02-05T19:25:50.212Z,-2.20
2018-02-05T19:28:20.173Z,-2.30
2018-02-05T19:30:50.223Z,-2.40
2018-02-05T19:33:20.190Z,-2.40
2018-02-05T19:35:49.850Z,-2.40
2018-02-05T19:38:18.248Z,-2.20
2018-02-05T19:40:47.522Z,-2.20
2018-02-05T19:43:18.136Z,-2.30
2018-02-05T19:45:48.300Z,-2.30
2018-02-05T19:48:17.507Z,-2.30
2018-02-05T19:50:46.590Z,-2.40
2018-02-05T19:53:19.343Z,-2.30
2018-02-05T19:55:49.354Z,-2.20
2018-02-05T19:58:19.753Z,-2.30
2018-02-05T20:00:49.728Z,-2.30
2018-02-05T20:03:18.820Z,-2.30
2018-02-05T20:05:48.137Z,-2.60
2018-02-05T20:08:17.395Z,-2.60
2018-02-05T20:10:45.699Z,-2.60
2018-02-05T20:13:16.314Z,-2.60
2018-02-05T20:15:46.391Z,-2.60
2018-02-05T20:18:15.686Z,-2.60
2018-02-05T20:20:45.795Z,-2.70
2018-02-05T20:23:15.667Z,-2.60
2018-02-05T20:25:49.137Z,-2.60
2018-02-05T20:28:18.967Z,-2.60
2018-02-05T20:30:49.537Z,-2.70
2018-02-05T20:33:18.923Z,-2.80
2018-02-05T20:35:48.387Z,-2.80
2018-02-05T20:38:18.653Z,-2.70
2018-02-05T20:40:49.227Z,-2.70
2018-02-05T20:43:18.419Z,-2.60
2018-02-05T20:45:48.083Z,-2.60
2018-02-05T20:48:19.892Z,-2.90
2018-02-05T20:50:49.509Z,-2.90
2018-02-05T20:53:22.334Z,-2.90
2018-02-05T20:55:58.065Z,-3.00
2018-02-05T20:58:28.404Z,-2.80
2018-02-05T21:00:58.201Z,-2.70
2018-02-05T21:03:27.023Z,-2.80
2018-02-05T21:05:55.191Z,-2.90
2018-02-05T21:08:23.561Z,-3.00
2018-02-05T21:10:51.876Z,-3.10
2018-02-05T21:13:25.884Z,-3.10
2018-02-05T21:15:55.783Z,-3.00
2018-02-05T21:18:30.910Z,-3.00
2018-02-05T21:21:00.497Z,-3.10
2018-02-05T21:23:30.158Z,-3.10
2018-02-05T21:26:00.466Z,-3.10
2018-02-05T21:28:29.956Z,-3.10
2018-02-05T21:30:59.036Z,-3.20
2018-02-05T21:33:29.529Z,-3.20
2018-02-05T21:35:57.713Z,-3.20
2018-02-05T21:38:26.094Z,-3.20
2018-02-05T21:40:54.972Z,-3.10
2018-02-05T21:43:24.340Z,-3.10
2018-02-05T21:45:54.754Z,-3.20
2018-02-05T21:48:23.951Z,-3.20
2018-02-05T21:50:57.123Z,-3.20
2018-02-05T21:53:26.388Z,-3.30
2018-02-05T21:55:56.609Z,-3.40
2018-02-05T21:58:24.817Z,-3.30
2018-02-05T22:00:52.788Z,-3.30
2018-02-05T22:03:20.850Z,-3.30
2018-02-05T22:05:48.751Z,-3.30
2018-02-05T22:08:16.642Z,-3.30
2018-02-05T22:10:45.585Z,-3.40
2018-02-05T22:13:13.654Z,-3.40
2018-02-05T22:15:41.638Z,-3.20
2018-02-05T22:18:09.698Z,-3.10
2018-02-05T22:20:40.429Z,-3.10
2018-02-05T22:23:08.324Z,-3.20
2018-02-05T22:25:36.293Z,-3.20
2018-02-05T22:28:04.339Z,-3.40
2018-02-05T22:30:32.417Z,-3.30
2018-02-05T22:33:00.290Z,-3.20
2018-02-05T22:35:28.516Z,-3.30
2018-02-05T22:37:56.382Z,-3.50
2018-02-05T22:40:24.621Z,-3.50
2018-02-05T22:42:54.047Z,-3.60
2018-02-05T22:45:21.890Z,-3.60
2018-02-05T22:47:51.934Z,-3.40
2018-02-05T22:50:21.410Z,-3.40
2018-02-05T22:52:49.931Z,-3.40
2018-02-05T22:55:18.579Z,-3.40
2018-02-05T22:57:48.691Z,-3.30
2018-02-05T23:00:17.485Z,-3.30
2018-02-05T23:02:45.300Z,-3.40
2018-02-05T23:05:13.064Z,-3.50
2018-02-05T23:07:41.504Z,-3.70
2018-02-05T23:10:10.364Z,-3.40
2018-02-05T23:12:38.209Z,-3.40
2018-02-05T23:15:06.383Z,-3.30
2018-02-05T23:17:34.263Z,-3.50
2018-02-05T23:20:02.189Z,-3.60
2018-02-05T23:22:30.080Z,-3.70
2018-02-05T23:24:58.082Z,-3.80
2018-02-05T23:27:26.021Z,-3.80
2018-02-05T23:29:53.793Z,-3.90
2018-02-05T23:32:21.802Z,-3.90
2018-02-05T23:34:49.642Z,-3.90
2018-02-05T23:37:17.416Z,-3.90
2018-02-05T23:39:45.656Z,-4.00
2018-02-05T23:42:13.460Z,-4.00
2018-02-05T23:44:41.218Z,-4.00
2018-02-05T23:47:09.102Z,-4.00
2018-02-05T23:49:38.560Z,-3.30
2018-02-05T23:52:06.987Z,-3.30
2018-02-05T23:54:35.718Z,-3.00
2018-02-05T23:57:03.793Z,-3.00
2018-02-05T23:59:31.786Z,-3.00
